sensor_id;sensor_type;location;lat;lon;timestamp;P1;durP1;ratioP1;P2;durP2;ratioP2
10201;SDS011;5143;42.584;23.164;2022-08-19T00:00:28;6.67;;;4.80;;
10201;SDS011;5143;42.584;23.164;2022-08-19T00:02:55;5.90;;;5.40;;
10201;SDS011;5143;42.584;23.164;2022-08-19T00:05:22;5.83;;;4.90;;
10201;SDS011;5143;42.584;23.164;2022-08-19T00:07:49;6.33;;;4.93;;
10201;SDS011;5143;42.584;23.164;2022-08-19T00:10:17;5.93;;;5.40;;
10201;SDS011;5143;42.584;23.164;2022-08-19T00:12:45;5.90;;;5.30;;
10201;SDS011;5143;42.584;23.164;2022-08-19T00:15:13;6.33;;;5.23;;
10201;SDS011;5143;42.584;23.164;2022-08-19T00:17:43;5.67;;;5.17;;
10201;SDS011;5143;42.584;23.164;2022-08-19T00:20:11;6.53;;;5.93;;
10201;SDS011;5143;42.584;23.164;2022-08-19T00:22:41;6.17;;;5.57;;
10201;SDS011;5143;42.584;23.164;2022-08-19T00:25:08;5.40;;;5.00;;
10201;SDS011;5143;42.584;23.164;2022-08-19T00:27:35;6.77;;;5.40;;
10201;SDS011;5143;42.584;23.164;2022-08-19T00:30:02;6.27;;;5.13;;
10201;SDS011;5143;42.584;23.164;2022-08-19T00:32:30;7.50;;;5.20;;
10201;SDS011;5143;42.584;23.164;2022-08-19T00:34:59;5.60;;;5.03;;
10201;SDS011;5143;42.584;23.164;2022-08-19T00:37:26;6.97;;;5.10;;
10201;SDS011;5143;42.584;23.164;2022-08-19T00:39:53;6.03;;;5.53;;
10201;SDS011;5143;42.584;23.164;2022-08-19T00:42:22;6.43;;;5.30;;
10201;SDS011;5143;42.584;23.164;2022-08-19T00:44:50;7.57;;;5.83;;
10201;SDS011;5143;42.584;23.164;2022-08-19T00:47:16;5.93;;;5.43;;
10201;SDS011;5143;42.584;23.164;2022-08-19T00:49:45;9.00;;;6.00;;
10201;SDS011;5143;42.584;23.164;2022-08-19T00:52:18;6.50;;;5.90;;
10201;SDS011;5143;42.584;23.164;2022-08-19T00:54:49;5.17;;;4.67;;
10201;SDS011;5143;42.584;23.164;2022-08-19T00:57:18;6.37;;;5.77;;
10201;SDS011;5143;42.584;23.164;2022-08-19T00:59:51;7.23;;;5.80;;
10201;SDS011;5143;42.584;23.164;2022-08-19T01:02:20;6.33;;;5.50;;
10201;SDS011;5143;42.584;23.164;2022-08-19T01:04:47;7.93;;;5.13;;
10201;SDS011;5143;42.584;23.164;2022-08-19T01:07:14;6.97;;;5.47;;
10201;SDS011;5143;42.584;23.164;2022-08-19T01:09:42;8.27;;;6.13;;
10201;SDS011;5143;42.584;23.164;2022-08-19T01:12:09;6.10;;;5.57;;
10201;SDS011;5143;42.584;23.164;2022-08-19T01:14:37;6.90;;;5.37;;
10201;SDS011;5143;42.584;23.164;2022-08-19T01:17:06;6.40;;;5.87;;
10201;SDS011;5143;42.584;23.164;2022-08-19T01:19:35;7.63;;;5.63;;
10201;SDS011;5143;42.584;23.164;2022-08-19T01:22:06;6.20;;;5.60;;
10201;SDS011;5143;42.584;23.164;2022-08-19T01:24:40;5.50;;;5.00;;
10201;SDS011;5143;42.584;23.164;2022-08-19T01:27:07;6.20;;;5.60;;
10201;SDS011;5143;42.584;23.164;2022-08-19T01:29:34;7.43;;;5.87;;
10201;SDS011;5143;42.584;23.164;2022-08-19T01:32:03;6.03;;;5.43;;
10201;SDS011;5143;42.584;23.164;2022-08-19T01:34:31;5.87;;;5.37;;
10201;SDS011;5143;42.584;23.164;2022-08-19T01:36:59;6.47;;;5.97;;
10201;SDS011;5143;42.584;23.164;2022-08-19T01:39:27;10.10;;;5.33;;
10201;SDS011;5143;42.584;23.164;2022-08-19T01:41:55;6.43;;;5.57;;
10201;SDS011;5143;42.584;23.164;2022-08-19T01:44:22;6.03;;;5.43;;
10201;SDS011;5143;42.584;23.164;2022-08-19T01:46:50;8.00;;;5.50;;
10201;SDS011;5143;42.584;23.164;2022-08-19T01:49:18;6.10;;;5.60;;
10201;SDS011;5143;42.584;23.164;2022-08-19T01:51:46;6.87;;;6.23;;
10201;SDS011;5143;42.584;23.164;2022-08-19T01:54:14;8.33;;;5.20;;
10201;SDS011;5143;42.584;23.164;2022-08-19T01:56:42;7.03;;;5.90;;
10201;SDS011;5143;42.584;23.164;2022-08-19T01:59:11;6.57;;;5.77;;
10201;SDS011;5143;42.584;23.164;2022-08-19T02:01:40;7.70;;;6.17;;
10201;SDS011;5143;42.584;23.164;2022-08-19T02:04:07;7.13;;;5.87;;
10201;SDS011;5143;42.584;23.164;2022-08-19T02:06:34;9.73;;;5.63;;
10201;SDS011;5143;42.584;23.164;2022-08-19T02:09:03;8.47;;;5.77;;
10201;SDS011;5143;42.584;23.164;2022-08-19T02:11:32;8.17;;;6.23;;
10201;SDS011;5143;42.584;23.164;2022-08-19T02:14:01;11.93;;;6.40;;
10201;SDS011;5143;42.584;23.164;2022-08-19T02:16:32;8.57;;;5.57;;
10201;SDS011;5143;42.584;23.164;2022-08-19T02:19:00;9.17;;;6.47;;
10201;SDS011;5143;42.584;23.164;2022-08-19T02:21:28;9.03;;;6.27;;
10201;SDS011;5143;42.584;23.164;2022-08-19T02:23:55;7.73;;;6.30;;
10201;SDS011;5143;42.584;23.164;2022-08-19T02:26:22;10.07;;;5.77;;
10201;SDS011;5143;42.584;23.164;2022-08-19T02:28:51;6.73;;;6.03;;
10201;SDS011;5143;42.584;23.164;2022-08-19T02:31:20;12.63;;;5.90;;
10201;SDS011;5143;42.584;23.164;2022-08-19T02:33:50;13.77;;;6.60;;
10201;SDS011;5143;42.584;23.164;2022-08-19T02:36:17;7.57;;;5.37;;
10201;SDS011;5143;42.584;23.164;2022-08-19T02:38:44;6.30;;;5.70;;
10201;SDS011;5143;42.584;23.164;2022-08-19T02:41:11;6.37;;;5.77;;
10201;SDS011;5143;42.584;23.164;2022-08-19T02:43:39;10.67;;;6.23;;
10201;SDS011;5143;42.584;23.164;2022-08-19T02:46:14;9.23;;;6.00;;
10201;SDS011;5143;42.584;23.164;2022-08-19T02:48:45;6.37;;;5.60;;
10201;SDS011;5143;42.584;23.164;2022-08-19T02:51:17;10.53;;;6.10;;
10201;SDS011;5143;42.584;23.164;2022-08-19T02:53:44;9.97;;;6.50;;
10201;SDS011;5143;42.584;23.164;2022-08-19T02:56:11;6.93;;;6.23;;
10201;SDS011;5143;42.584;23.164;2022-08-19T02:58:38;12.97;;;6.00;;
10201;SDS011;5143;42.584;23.164;2022-08-19T03:01:05;7.33;;;6.10;;
10201;SDS011;5143;42.584;23.164;2022-08-19T03:03:32;6.70;;;6.10;;
10201;SDS011;5143;42.584;23.164;2022-08-19T03:06:03;7.00;;;6.40;;
10201;SDS011;5143;42.584;23.164;2022-08-19T03:08:36;10.10;;;6.37;;
10201;SDS011;5143;42.584;23.164;2022-08-19T03:11:04;9.80;;;6.60;;
10201;SDS011;5143;42.584;23.164;2022-08-19T03:13:30;8.07;;;6.20;;
10201;SDS011;5143;42.584;23.164;2022-08-19T03:15:58;9.67;;;7.07;;
10201;SDS011;5143;42.584;23.164;2022-08-19T03:18:24;6.57;;;5.97;;
10201;SDS011;5143;42.584;23.164;2022-08-19T03:20:51;6.23;;;5.63;;
10201;SDS011;5143;42.584;23.164;2022-08-19T03:23:19;9.17;;;6.40;;
10201;SDS011;5143;42.584;23.164;2022-08-19T03:25:48;6.90;;;5.90;;
10201;SDS011;5143;42.584;23.164;2022-08-19T03:28:17;8.17;;;5.80;;
10201;SDS011;5143;42.584;23.164;2022-08-19T03:30:54;7.93;;;5.90;;
10201;SDS011;5143;42.584;23.164;2022-08-19T03:33:23;6.77;;;5.63;;
10201;SDS011;5143;42.584;23.164;2022-08-19T03:36:01;9.43;;;6.33;;
10201;SDS011;5143;42.584;23.164;2022-08-19T03:38:32;6.77;;;6.10;;
10201;SDS011;5143;42.584;23.164;2022-08-19T03:41:03;9.17;;;6.20;;
10201;SDS011;5143;42.584;23.164;2022-08-19T03:43:33;10.13;;;6.43;;
10201;SDS011;5143;42.584;23.164;2022-08-19T03:46:01;7.53;;;6.30;;
10201;SDS011;5143;42.584;23.164;2022-08-19T03:48:30;6.80;;;6.10;;
10201;SDS011;5143;42.584;23.164;2022-08-19T03:50:58;10.27;;;5.80;;
10201;SDS011;5143;42.584;23.164;2022-08-19T03:53:25;8.27;;;5.60;;
10201;SDS011;5143;42.584;23.164;2022-08-19T03:55:52;7.83;;;5.67;;
10201;SDS011;5143;42.584;23.164;2022-08-19T03:58:21;9.43;;;6.87;;
10201;SDS011;5143;42.584;23.164;2022-08-19T04:00:48;9.43;;;5.90;;
10201;SDS011;5143;42.584;23.164;2022-08-19T04:03:15;11.10;;;5.50;;
10201;SDS011;5143;42.584;23.164;2022-08-19T04:05:43;10.20;;;6.10;;
10201;SDS011;5143;42.584;23.164;2022-08-19T04:08:11;12.17;;;6.33;;
10201;SDS011;5143;42.584;23.164;2022-08-19T04:10:40;9.83;;;6.47;;
10201;SDS011;5143;42.584;23.164;2022-08-19T04:13:07;7.97;;;6.27;;
10201;SDS011;5143;42.584;23.164;2022-08-19T04:15:38;9.37;;;5.87;;
10201;SDS011;5143;42.584;23.164;2022-08-19T04:18:06;6.70;;;6.03;;
10201;SDS011;5143;42.584;23.164;2022-08-19T04:20:38;7.50;;;6.10;;
10201;SDS011;5143;42.584;23.164;2022-08-19T04:23:05;13.73;;;6.00;;
10201;SDS011;5143;42.584;23.164;2022-08-19T04:25:34;11.40;;;6.50;;
10201;SDS011;5143;42.584;23.164;2022-08-19T04:28:03;14.10;;;6.43;;
10201;SDS011;5143;42.584;23.164;2022-08-19T04:30:30;13.57;;;6.67;;
10201;SDS011;5143;42.584;23.164;2022-08-19T04:32:58;26.00;;;6.73;;
10201;SDS011;5143;42.584;23.164;2022-08-19T04:35:25;14.40;;;6.20;;
10201;SDS011;5143;42.584;23.164;2022-08-19T04:37:52;20.67;;;6.83;;
10201;SDS011;5143;42.584;23.164;2022-08-19T04:40:19;18.53;;;6.77;;
10201;SDS011;5143;42.584;23.164;2022-08-19T04:43:03;12.77;;;6.07;;
10201;SDS011;5143;42.584;23.164;2022-08-19T04:45:30;21.13;;;6.77;;
10201;SDS011;5143;42.584;23.164;2022-08-19T04:47:58;13.13;;;6.57;;
10201;SDS011;5143;42.584;23.164;2022-08-19T04:50:26;18.63;;;7.13;;
10201;SDS011;5143;42.584;23.164;2022-08-19T04:52:53;16.63;;;6.73;;
10201;SDS011;5143;42.584;23.164;2022-08-19T04:55:20;16.70;;;8.27;;
10201;SDS011;5143;42.584;23.164;2022-08-19T04:57:47;20.43;;;11.93;;
10201;SDS011;5143;42.584;23.164;2022-08-19T05:00:15;16.60;;;9.20;;
10201;SDS011;5143;42.584;23.164;2022-08-19T05:02:42;17.27;;;6.03;;
10201;SDS011;5143;42.584;23.164;2022-08-19T05:05:11;14.13;;;4.70;;
10201;SDS011;5143;42.584;23.164;2022-08-19T05:07:38;19.40;;;4.90;;
10201;SDS011;5143;42.584;23.164;2022-08-19T05:10:06;8.97;;;4.20;;
10201;SDS011;5143;42.584;23.164;2022-08-19T05:12:33;12.23;;;4.33;;
10201;SDS011;5143;42.584;23.164;2022-08-19T05:15:01;10.13;;;3.87;;
10201;SDS011;5143;42.584;23.164;2022-08-19T05:17:29;12.53;;;4.00;;
10201;SDS011;5143;42.584;23.164;2022-08-19T05:19:56;7.45;;;3.63;;
10201;SDS011;5143;42.584;23.164;2022-08-19T05:22:42;11.93;;;3.70;;
10201;SDS011;5143;42.584;23.164;2022-08-19T05:25:10;5.35;;;3.30;;
10201;SDS011;5143;42.584;23.164;2022-08-19T05:27:39;7.35;;;3.15;;
10201;SDS011;5143;42.584;23.164;2022-08-19T05:30:07;8.45;;;2.97;;
10201;SDS011;5143;42.584;23.164;2022-08-19T05:32:35;5.70;;;4.25;;
10201;SDS011;5143;42.584;23.164;2022-08-19T05:35:01;7.45;;;2.80;;
10201;SDS011;5143;42.584;23.164;2022-08-19T05:37:29;4.45;;;2.58;;
10201;SDS011;5143;42.584;23.164;2022-08-19T05:39:57;13.52;;;3.13;;
10201;SDS011;5143;42.584;23.164;2022-08-19T05:42:24;5.35;;;2.63;;
10201;SDS011;5143;42.584;23.164;2022-08-19T05:44:51;2.53;;;2.20;;
10201;SDS011;5143;42.584;23.164;2022-08-19T05:47:18;8.20;;;1.90;;
10201;SDS011;5143;42.584;23.164;2022-08-19T05:49:45;6.38;;;2.60;;
10201;SDS011;5143;42.584;23.164;2022-08-19T05:52:15;6.47;;;2.47;;
10201;SDS011;5143;42.584;23.164;2022-08-19T05:54:42;6.15;;;2.30;;
10201;SDS011;5143;42.584;23.164;2022-08-19T05:57:11;5.57;;;2.30;;
10201;SDS011;5143;42.584;23.164;2022-08-19T05:59:38;3.28;;;2.38;;
10201;SDS011;5143;42.584;23.164;2022-08-19T06:02:05;3.88;;;2.10;;
10201;SDS011;5143;42.584;23.164;2022-08-19T06:04:32;3.55;;;2.20;;
10201;SDS011;5143;42.584;23.164;2022-08-19T06:06:59;4.82;;;2.22;;
10201;SDS011;5143;42.584;23.164;2022-08-19T06:09:27;4.88;;;2.00;;
10201;SDS011;5143;42.584;23.164;2022-08-19T06:11:54;3.50;;;2.15;;
10201;SDS011;5143;42.584;23.164;2022-08-19T06:14:27;4.72;;;2.70;;
10201;SDS011;5143;42.584;23.164;2022-08-19T06:16:56;3.50;;;2.35;;
10201;SDS011;5143;42.584;23.164;2022-08-19T06:19:25;3.00;;;2.30;;
10201;SDS011;5143;42.584;23.164;2022-08-19T06:21:55;4.30;;;2.30;;
10201;SDS011;5143;42.584;23.164;2022-08-19T06:24:23;6.00;;;2.20;;
10201;SDS011;5143;42.584;23.164;2022-08-19T06:26:52;8.52;;;2.80;;
10201;SDS011;5143;42.584;23.164;2022-08-19T06:29:22;6.68;;;2.30;;
10201;SDS011;5143;42.584;23.164;2022-08-19T06:31:52;2.08;;;1.88;;
10201;SDS011;5143;42.584;23.164;2022-08-19T06:34:21;4.95;;;2.17;;
10201;SDS011;5143;42.584;23.164;2022-08-19T06:36:49;10.68;;;2.53;;
10201;SDS011;5143;42.584;23.164;2022-08-19T06:39:18;3.40;;;2.40;;
10201;SDS011;5143;42.584;23.164;2022-08-19T06:41:47;3.83;;;2.20;;
10201;SDS011;5143;42.584;23.164;2022-08-19T06:44:16;5.38;;;2.30;;
10201;SDS011;5143;42.584;23.164;2022-08-19T06:46:43;5.10;;;2.42;;
10201;SDS011;5143;42.584;23.164;2022-08-19T06:49:11;5.53;;;2.20;;
10201;SDS011;5143;42.584;23.164;2022-08-19T06:51:40;4.88;;;2.10;;
10201;SDS011;5143;42.584;23.164;2022-08-19T06:54:07;6.22;;;2.35;;
10201;SDS011;5143;42.584;23.164;2022-08-19T06:56:34;3.38;;;2.10;;
10201;SDS011;5143;42.584;23.164;2022-08-19T06:59:01;8.70;;;2.63;;
10201;SDS011;5143;42.584;23.164;2022-08-19T07:01:29;4.88;;;2.45;;
10201;SDS011;5143;42.584;23.164;2022-08-19T07:03:56;5.28;;;2.22;;
10201;SDS011;5143;42.584;23.164;2022-08-19T07:06:24;3.50;;;1.98;;
10201;SDS011;5143;42.584;23.164;2022-08-19T07:08:51;3.97;;;2.00;;
10201;SDS011;5143;42.584;23.164;2022-08-19T07:11:18;5.65;;;2.10;;
10201;SDS011;5143;42.584;23.164;2022-08-19T07:13:45;2.70;;;1.80;;
10201;SDS011;5143;42.584;23.164;2022-08-19T07:16:14;2.95;;;1.95;;
10201;SDS011;5143;42.584;23.164;2022-08-19T07:18:44;3.28;;;2.00;;
10201;SDS011;5143;42.584;23.164;2022-08-19T07:21:12;3.97;;;2.05;;
10201;SDS011;5143;42.584;23.164;2022-08-19T07:23:43;3.65;;;1.90;;
10201;SDS011;5143;42.584;23.164;2022-08-19T07:26:12;5.07;;;2.00;;
10201;SDS011;5143;42.584;23.164;2022-08-19T07:28:40;3.38;;;1.70;;
10201;SDS011;5143;42.584;23.164;2022-08-19T07:31:09;2.88;;;1.77;;
10201;SDS011;5143;42.584;23.164;2022-08-19T07:33:38;3.58;;;1.90;;
10201;SDS011;5143;42.584;23.164;2022-08-19T07:36:06;4.22;;;2.40;;
10201;SDS011;5143;42.584;23.164;2022-08-19T07:38:36;5.93;;;2.00;;
10201;SDS011;5143;42.584;23.164;2022-08-19T07:41:05;2.25;;;1.70;;
10201;SDS011;5143;42.584;23.164;2022-08-19T07:43:34;6.05;;;2.20;;
10201;SDS011;5143;42.584;23.164;2022-08-19T07:46:01;4.20;;;1.90;;
10201;SDS011;5143;42.584;23.164;2022-08-19T07:48:28;6.60;;;4.28;;
10201;SDS011;5143;42.584;23.164;2022-08-19T07:50:57;8.77;;;5.35;;
10201;SDS011;5143;42.584;23.164;2022-08-19T07:53:27;7.47;;;2.38;;
10201;SDS011;5143;42.584;23.164;2022-08-19T07:55:55;5.78;;;2.10;;
10201;SDS011;5143;42.584;23.164;2022-08-19T07:58:24;5.80;;;2.13;;
10201;SDS011;5143;42.584;23.164;2022-08-19T08:00:52;6.28;;;1.88;;
10201;SDS011;5143;42.584;23.164;2022-08-19T08:03:19;2.60;;;1.85;;
10201;SDS011;5143;42.584;23.164;2022-08-19T08:06:08;5.80;;;2.17;;
10201;SDS011;5143;42.584;23.164;2022-08-19T08:08:53;4.20;;;2.00;;
10201;SDS011;5143;42.584;23.164;2022-08-19T08:11:43;10.38;;;5.03;;
10201;SDS011;5143;42.584;23.164;2022-08-19T08:14:17;4.60;;;2.33;;
10201;SDS011;5143;42.584;23.164;2022-08-19T08:16:46;5.55;;;3.85;;
10201;SDS011;5143;42.584;23.164;2022-08-19T08:19:16;3.97;;;2.17;;
10201;SDS011;5143;42.584;23.164;2022-08-19T08:21:45;8.68;;;2.45;;
10201;SDS011;5143;42.584;23.164;2022-08-19T08:24:13;4.60;;;2.35;;
10201;SDS011;5143;42.584;23.164;2022-08-19T08:26:39;8.80;;;2.90;;
10201;SDS011;5143;42.584;23.164;2022-08-19T08:29:06;17.40;;;2.88;;
10201;SDS011;5143;42.584;23.164;2022-08-19T08:31:38;10.13;;;2.80;;
10201;SDS011;5143;42.584;23.164;2022-08-19T08:34:05;5.70;;;2.83;;
10201;SDS011;5143;42.584;23.164;2022-08-19T08:36:32;6.78;;;2.70;;
10201;SDS011;5143;42.584;23.164;2022-08-19T08:38:59;7.43;;;2.85;;
10201;SDS011;5143;42.584;23.164;2022-08-19T08:41:28;5.35;;;2.40;;
10201;SDS011;5143;42.584;23.164;2022-08-19T08:43:59;9.70;;;2.80;;
10201;SDS011;5143;42.584;23.164;2022-08-19T08:46:32;8.77;;;3.05;;
10201;SDS011;5143;42.584;23.164;2022-08-19T08:49:06;7.50;;;2.95;;
10201;SDS011;5143;42.584;23.164;2022-08-19T08:51:44;5.85;;;2.90;;
10201;SDS011;5143;42.584;23.164;2022-08-19T08:54:15;7.78;;;3.10;;
10201;SDS011;5143;42.584;23.164;2022-08-19T08:56:45;7.85;;;2.95;;
10201;SDS011;5143;42.584;23.164;2022-08-19T08:59:16;17.38;;;3.10;;
10201;SDS011;5143;42.584;23.164;2022-08-19T09:01:48;11.10;;;3.45;;
10201;SDS011;5143;42.584;23.164;2022-08-19T09:04:16;13.50;;;3.80;;
10201;SDS011;5143;42.584;23.164;2022-08-19T09:06:44;6.63;;;2.95;;
10201;SDS011;5143;42.584;23.164;2022-08-19T09:09:18;7.00;;;3.40;;
10201;SDS011;5143;42.584;23.164;2022-08-19T09:11:55;7.20;;;3.13;;
10201;SDS011;5143;42.584;23.164;2022-08-19T09:14:32;13.15;;;3.20;;
10201;SDS011;5143;42.584;23.164;2022-08-19T09:17:06;9.98;;;3.00;;
10201;SDS011;5143;42.584;23.164;2022-08-19T09:19:36;13.93;;;3.13;;
10201;SDS011;5143;42.584;23.164;2022-08-19T09:22:13;10.27;;;2.85;;
10201;SDS011;5143;42.584;23.164;2022-08-19T09:24:40;5.20;;;2.80;;
10201;SDS011;5143;42.584;23.164;2022-08-19T09:27:07;6.93;;;3.03;;
10201;SDS011;5143;42.584;23.164;2022-08-19T09:29:34;6.32;;;2.70;;
10201;SDS011;5143;42.584;23.164;2022-08-19T09:32:01;5.93;;;2.42;;
10201;SDS011;5143;42.584;23.164;2022-08-19T09:34:28;9.98;;;2.45;;
10201;SDS011;5143;42.584;23.164;2022-08-19T09:36:57;4.28;;;2.70;;
10201;SDS011;5143;42.584;23.164;2022-08-19T09:39:25;6.47;;;2.70;;
10201;SDS011;5143;42.584;23.164;2022-08-19T09:41:52;9.43;;;2.63;;
10201;SDS011;5143;42.584;23.164;2022-08-19T09:44:19;6.47;;;2.35;;
10201;SDS011;5143;42.584;23.164;2022-08-19T09:46:45;9.43;;;2.60;;
10201;SDS011;5143;42.584;23.164;2022-08-19T09:49:13;6.45;;;2.72;;
10201;SDS011;5143;42.584;23.164;2022-08-19T09:51:39;9.57;;;2.75;;
10201;SDS011;5143;42.584;23.164;2022-08-19T09:54:07;6.18;;;2.65;;
10201;SDS011;5143;42.584;23.164;2022-08-19T09:56:34;6.57;;;2.78;;
10201;SDS011;5143;42.584;23.164;2022-08-19T09:59:02;4.13;;;2.70;;
10201;SDS011;5143;42.584;23.164;2022-08-19T10:01:30;9.65;;;2.40;;
10201;SDS011;5143;42.584;23.164;2022-08-19T10:03:58;8.40;;;2.88;;
10201;SDS011;5143;42.584;23.164;2022-08-19T10:06:26;4.43;;;2.20;;
10201;SDS011;5143;42.584;23.164;2022-08-19T10:08:58;6.60;;;2.47;;
10201;SDS011;5143;42.584;23.164;2022-08-19T10:11:26;6.47;;;2.40;;
10201;SDS011;5143;42.584;23.164;2022-08-19T10:13:54;3.47;;;2.10;;
10201;SDS011;5143;42.584;23.164;2022-08-19T10:16:21;4.57;;;2.20;;
10201;SDS011;5143;42.584;23.164;2022-08-19T10:18:50;6.25;;;2.70;;
10201;SDS011;5143;42.584;23.164;2022-08-19T10:21:19;2.08;;;1.73;;
10201;SDS011;5143;42.584;23.164;2022-08-19T10:23:48;5.63;;;2.25;;
10201;SDS011;5143;42.584;23.164;2022-08-19T10:26:17;4.63;;;2.03;;
10201;SDS011;5143;42.584;23.164;2022-08-19T10:28:48;4.47;;;2.53;;
10201;SDS011;5143;42.584;23.164;2022-08-19T10:31:16;5.45;;;3.22;;
10201;SDS011;5143;42.584;23.164;2022-08-19T10:33:44;5.45;;;2.40;;
10201;SDS011;5143;42.584;23.164;2022-08-19T10:36:13;3.05;;;2.15;;
10201;SDS011;5143;42.584;23.164;2022-08-19T10:38:42;6.30;;;2.47;;
10201;SDS011;5143;42.584;23.164;2022-08-19T10:41:11;5.50;;;2.53;;
10201;SDS011;5143;42.584;23.164;2022-08-19T10:43:39;3.63;;;2.47;;
10201;SDS011;5143;42.584;23.164;2022-08-19T10:46:09;4.90;;;2.38;;
10201;SDS011;5143;42.584;23.164;2022-08-19T10:48:38;3.58;;;2.60;;
10201;SDS011;5143;42.584;23.164;2022-08-19T10:51:05;5.85;;;2.70;;
10201;SDS011;5143;42.584;23.164;2022-08-19T10:54:04;5.05;;;2.53;;
10201;SDS011;5143;42.584;23.164;2022-08-19T10:56:32;6.32;;;2.78;;
10201;SDS011;5143;42.584;23.164;2022-08-19T10:59:17;4.97;;;2.80;;
10201;SDS011;5143;42.584;23.164;2022-08-19T11:01:47;5.22;;;2.25;;
10201;SDS011;5143;42.584;23.164;2022-08-19T11:04:15;11.10;;;2.90;;
10201;SDS011;5143;42.584;23.164;2022-08-19T11:06:43;4.15;;;2.75;;
10201;SDS011;5143;42.584;23.164;2022-08-19T11:09:12;3.72;;;2.53;;
10201;SDS011;5143;42.584;23.164;2022-08-19T11:11:40;5.50;;;3.00;;
10201;SDS011;5143;42.584;23.164;2022-08-19T11:14:08;6.43;;;2.63;;
10201;SDS011;5143;42.584;23.164;2022-08-19T11:16:36;6.20;;;2.90;;
10201;SDS011;5143;42.584;23.164;2022-08-19T11:19:06;4.20;;;2.72;;
10201;SDS011;5143;42.584;23.164;2022-08-19T11:21:35;5.55;;;2.40;;
10201;SDS011;5143;42.584;23.164;2022-08-19T11:24:05;6.65;;;2.70;;
10201;SDS011;5143;42.584;23.164;2022-08-19T11:26:34;5.63;;;2.70;;
10201;SDS011;5143;42.584;23.164;2022-08-19T11:29:03;3.83;;;2.53;;
10201;SDS011;5143;42.584;23.164;2022-08-19T11:31:32;9.40;;;2.95;;
10201;SDS011;5143;42.584;23.164;2022-08-19T11:34:02;4.57;;;2.42;;
10201;SDS011;5143;42.584;23.164;2022-08-19T11:36:32;6.60;;;2.30;;
10201;SDS011;5143;42.584;23.164;2022-08-19T11:38:59;3.92;;;2.70;;
10201;SDS011;5143;42.584;23.164;2022-08-19T11:41:27;5.20;;;2.58;;
10201;SDS011;5143;42.584;23.164;2022-08-19T11:43:54;5.60;;;2.90;;
10201;SDS011;5143;42.584;23.164;2022-08-19T11:46:22;5.90;;;3.25;;
10201;SDS011;5143;42.584;23.164;2022-08-19T11:48:50;6.03;;;2.95;;
10201;SDS011;5143;42.584;23.164;2022-08-19T11:51:19;7.20;;;3.28;;
10201;SDS011;5143;42.584;23.164;2022-08-19T11:53:50;4.57;;;2.65;;
10201;SDS011;5143;42.584;23.164;2022-08-19T11:56:18;3.85;;;2.53;;
10201;SDS011;5143;42.584;23.164;2022-08-19T11:58:46;4.57;;;2.30;;
10201;SDS011;5143;42.584;23.164;2022-08-19T12:01:13;11.13;;;2.50;;
10201;SDS011;5143;42.584;23.164;2022-08-19T12:03:42;6.50;;;2.78;;
10201;SDS011;5143;42.584;23.164;2022-08-19T12:06:11;5.65;;;2.70;;
10201;SDS011;5143;42.584;23.164;2022-08-19T12:08:38;8.75;;;2.80;;
10201;SDS011;5143;42.584;23.164;2022-08-19T12:11:07;6.47;;;2.60;;
10201;SDS011;5143;42.584;23.164;2022-08-19T12:13:34;3.97;;;2.72;;
10201;SDS011;5143;42.584;23.164;2022-08-19T12:16:02;7.82;;;3.00;;
10201;SDS011;5143;42.584;23.164;2022-08-19T12:18:37;5.30;;;2.50;;
10201;SDS011;5143;42.584;23.164;2022-08-19T12:21:06;7.38;;;2.95;;
10201;SDS011;5143;42.584;23.164;2022-08-19T12:23:35;3.53;;;2.40;;
10201;SDS011;5143;42.584;23.164;2022-08-19T12:26:02;5.97;;;2.58;;
10201;SDS011;5143;42.584;23.164;2022-08-19T12:28:31;8.68;;;2.65;;
10201;SDS011;5143;42.584;23.164;2022-08-19T12:30:58;6.18;;;2.53;;
10201;SDS011;5143;42.584;23.164;2022-08-19T12:33:25;5.55;;;2.47;;
10201;SDS011;5143;42.584;23.164;2022-08-19T12:35:53;10.45;;;2.80;;
10201;SDS011;5143;42.584;23.164;2022-08-19T12:38:21;7.07;;;2.42;;
10201;SDS011;5143;42.584;23.164;2022-08-19T12:40:49;8.55;;;2.70;;
10201;SDS011;5143;42.584;23.164;2022-08-19T12:43:17;9.07;;;2.63;;
10201;SDS011;5143;42.584;23.164;2022-08-19T12:45:46;5.55;;;2.53;;
10201;SDS011;5143;42.584;23.164;2022-08-19T12:48:13;7.88;;;2.55;;
10201;SDS011;5143;42.584;23.164;2022-08-19T12:50:40;5.25;;;3.00;;
10201;SDS011;5143;42.584;23.164;2022-08-19T12:53:07;5.95;;;2.80;;
10201;SDS011;5143;42.584;23.164;2022-08-19T12:55:34;7.85;;;2.90;;
10201;SDS011;5143;42.584;23.164;2022-08-19T12:58:01;5.80;;;2.75;;
10201;SDS011;5143;42.584;23.164;2022-08-19T13:00:28;9.68;;;2.78;;
10201;SDS011;5143;42.584;23.164;2022-08-19T13:02:59;8.82;;;2.53;;
10201;SDS011;5143;42.584;23.164;2022-08-19T13:05:29;7.65;;;2.53;;
10201;SDS011;5143;42.584;23.164;2022-08-19T13:07:58;3.50;;;2.20;;
10201;SDS011;5143;42.584;23.164;2022-08-19T13:10:27;6.20;;;2.70;;
10201;SDS011;5143;42.584;23.164;2022-08-19T13:12:55;10.50;;;2.85;;
10201;SDS011;5143;42.584;23.164;2022-08-19T13:15:24;9.02;;;3.25;;
10201;SDS011;5143;42.584;23.164;2022-08-19T13:17:53;9.10;;;2.80;;
10201;SDS011;5143;42.584;23.164;2022-08-19T13:20:23;6.07;;;2.60;;
10201;SDS011;5143;42.584;23.164;2022-08-19T13:22:50;5.22;;;2.53;;
10201;SDS011;5143;42.584;23.164;2022-08-19T13:25:17;7.05;;;2.42;;
10201;SDS011;5143;42.584;23.164;2022-08-19T13:27:45;8.82;;;2.58;;
10201;SDS011;5143;42.584;23.164;2022-08-19T13:30:14;6.63;;;2.60;;
10201;SDS011;5143;42.584;23.164;2022-08-19T13:33:00;9.05;;;3.45;;
10201;SDS011;5143;42.584;23.164;2022-08-19T13:35:42;5.00;;;2.30;;
10201;SDS011;5143;42.584;23.164;2022-08-19T13:38:11;8.90;;;2.67;;
10201;SDS011;5143;42.584;23.164;2022-08-19T13:40:40;6.68;;;2.67;;
10201;SDS011;5143;42.584;23.164;2022-08-19T13:43:07;10.73;;;3.17;;
10201;SDS011;5143;42.584;23.164;2022-08-19T13:45:35;8.48;;;3.08;;
10201;SDS011;5143;42.584;23.164;2022-08-19T13:48:03;5.63;;;2.60;;
10201;SDS011;5143;42.584;23.164;2022-08-19T13:50:33;8.65;;;2.85;;
10201;SDS011;5143;42.584;23.164;2022-08-19T13:53:05;6.05;;;2.30;;
10201;SDS011;5143;42.584;23.164;2022-08-19T13:55:32;8.90;;;2.63;;
10201;SDS011;5143;42.584;23.164;2022-08-19T13:57:59;9.27;;;3.03;;
10201;SDS011;5143;42.584;23.164;2022-08-19T14:00:28;9.82;;;2.75;;
10201;SDS011;5143;42.584;23.164;2022-08-19T14:02:57;6.85;;;2.40;;
10201;SDS011;5143;42.584;23.164;2022-08-19T14:05:25;8.98;;;2.70;;
10201;SDS011;5143;42.584;23.164;2022-08-19T14:07:53;9.68;;;2.70;;
10201;SDS011;5143;42.584;23.164;2022-08-19T14:10:22;7.15;;;2.58;;
10201;SDS011;5143;42.584;23.164;2022-08-19T14:12:53;8.23;;;3.00;;
10201;SDS011;5143;42.584;23.164;2022-08-19T14:15:23;4.05;;;2.70;;
10201;SDS011;5143;42.584;23.164;2022-08-19T14:17:50;10.23;;;2.83;;
10201;SDS011;5143;42.584;23.164;2022-08-19T14:20:17;7.25;;;2.97;;
10201;SDS011;5143;42.584;23.164;2022-08-19T14:22:45;10.02;;;2.70;;
10201;SDS011;5143;42.584;23.164;2022-08-19T14:25:14;5.95;;;2.88;;
10201;SDS011;5143;42.584;23.164;2022-08-19T14:27:43;8.02;;;2.70;;
10201;SDS011;5143;42.584;23.164;2022-08-19T14:30:11;6.25;;;2.42;;
10201;SDS011;5143;42.584;23.164;2022-08-19T14:32:41;4.75;;;2.42;;
10201;SDS011;5143;42.584;23.164;2022-08-19T14:35:09;5.18;;;2.45;;
10201;SDS011;5143;42.584;23.164;2022-08-19T14:37:37;5.00;;;2.60;;
10201;SDS011;5143;42.584;23.164;2022-08-19T14:40:05;7.38;;;2.75;;
10201;SDS011;5143;42.584;23.164;2022-08-19T14:42:33;5.47;;;2.70;;
10201;SDS011;5143;42.584;23.164;2022-08-19T14:45:02;5.70;;;2.90;;
10201;SDS011;5143;42.584;23.164;2022-08-19T14:47:31;6.22;;;2.50;;
10201;SDS011;5143;42.584;23.164;2022-08-19T14:49:58;7.60;;;2.63;;
10201;SDS011;5143;42.584;23.164;2022-08-19T14:52:24;8.63;;;2.70;;
10201;SDS011;5143;42.584;23.164;2022-08-19T14:54:52;9.55;;;2.75;;